Time;durP1;ratioP1;P1;durP2;ratioP2;P2;SDS_P1;SDS_P2;PMS_P1;PMS_P2;Temp;Humidity;BMP_temperature;BMP_pressure;BME280_temperature;BME280_humidity;BME280_pressure;Samples;Min_cycle;Max_cycle;Signal;HPM_P1;HPM_P2
2022/04/11 00:01:57;;;;;;;3.33;1.60;;;4.30;99.90;;;;;;5083507;28;20020;-64
2022/04/11 00:04:24;;;;;;;2.53;1.42;;;4.20;99.90;;;;;;5062027;28;20016;-65
2022/04/11 00:06:49;;;;;;;1.42;1.00;;;4.20;99.90;;;;;;5077245;28;20157;-65
2022/04/11 00:09:15;;;;;;;2.15;1.20;;;4.30;99.90;;;;;;5077220;28;20096;-65
2022/04/11 00:11:41;;;;;;;4.53;1.45;;;4.30;99.90;;;;;;5077975;28;20037;-65
2022/04/11 00:14:07;;;;;;;4.53;1.58;;;4.10;99.90;;;;;;5070412;28;20058;-65
2022/04/11 00:16:32;;;;;;;1.38;1.00;;;4.00;99.90;;;;;;5076687;28;20107;-65
2022/04/11 00:18:58;;;;;;;2.33;1.33;;;4.10;99.90;;;;;;5080105;28;20077;-65
2022/04/11 00:21:23;;;;;;;2.00;1.13;;;4.20;99.90;;;;;;5059060;28;20028;-65
2022/04/11 00:23:49;;;;;;;1.50;1.08;;;4.30;99.90;;;;;;5079489;28;20725;-65
2022/04/11 00:26:15;;;;;;;6.75;1.70;;;4.30;99.90;;;;;;5078462;28;20048;-65
2022/04/11 00:28:41;;;;;;;0.85;0.80;;;4.50;99.90;;;;;;5082547;28;20032;-65
2022/04/11 00:31:06;;;;;;;2.22;1.08;;;4.50;99.90;;;;;;5070691;28;20487;-65
2022/04/11 00:33:32;;;;;;;2.35;1.38;;;4.60;99.90;;;;;;5081266;28;20028;-65
2022/04/11 00:35:57;;;;;;;3.97;1.48;;;4.70;99.90;;;;;;5079584;28;20025;-64
2022/04/11 00:38:23;;;;;;;1.48;0.95;;;4.80;99.90;;;;;;5082796;28;20502;-64
2022/04/11 00:40:49;;;;;;;2.08;1.13;;;4.80;99.90;;;;;;5081516;28;20024;-64
2022/04/11 00:43:35;;;;;;;3.08;1.40;;;4.90;99.90;;;;;;5078250;28;20099;-64
2022/04/11 00:46:01;;;;;;;1.02;0.90;;;4.90;99.90;;;;;;5080886;28;20392;-64
2022/04/11 00:48:27;;;;;;;1.95;1.38;;;5.00;99.90;;;;;;5062251;28;20059;-64
2022/04/11 00:50:58;;;;;;;2.85;2.05;;;5.00;99.90;;;;;;5085342;28;20047;-64
2022/04/11 00:53:25;;;;;;;2.50;1.40;;;4.90;99.90;;;;;;5080070;28;20365;-64
2022/04/11 00:55:52;;;;;;;3.33;1.73;;;4.90;99.90;;;;;;5070590;28;20797;-64
2022/04/11 00:58:18;;;;;;;1.92;1.48;;;4.90;99.90;;;;;;5078638;28;20031;-64
2022/04/11 01:00:44;;;;;;;5.85;1.40;;;4.90;99.90;;;;;;5078646;28;20107;-64
2022/04/11 01:03:09;;;;;;;1.63;1.08;;;4.80;99.90;;;;;;5081493;28;20100;-64
2022/04/11 01:05:35;;;;;;;5.43;1.27;;;4.80;99.90;;;;;;5081979;28;20024;-64
2022/04/11 01:08:05;;;;;;;3.25;1.50;;;4.80;99.90;;;;;;5078523;28;20021;-66
2022/04/11 01:10:31;;;;;;;5.90;1.77;;;4.80;99.90;;;;;;5075665;28;20021;-66
2022/04/11 01:12:57;;;;;;;1.88;1.20;;;4.90;99.90;;;;;;5076008;28;20030;-64
2022/04/11 01:15:23;;;;;;;2.80;1.90;;;4.90;99.90;;;;;;5081269;28;20658;-64
2022/04/11 01:17:48;;;;;;;8.07;1.90;;;4.90;99.90;;;;;;5074344;28;20074;-65
2022/04/11 01:20:19;;;;;;;3.40;1.58;;;4.90;99.90;;;;;;5083614;28;20032;-64
2022/04/11 01:22:48;;;;;;;2.03;1.00;;;4.90;99.90;;;;;;5080403;28;20039;-64
2022/04/11 01:25:15;;;;;;;2.00;1.20;;;4.90;99.90;;;;;;5084405;28;20020;-64
2022/04/11 01:27:41;;;;;;;2.20;1.25;;;5.00;99.90;;;;;;5078205;28;20122;-64
2022/04/11 01:30:11;;;;;;;2.17;1.33;;;4.90;99.90;;;;;;5083712;28;20035;-64
2022/04/11 01:32:38;;;;;;;10.65;1.65;;;4.90;99.90;;;;;;5078935;28;20111;-64
2022/04/11 01:35:04;;;;;;;1.33;1.00;;;4.90;99.90;;;;;;5087548;28;20030;-64
2022/04/11 01:37:30;;;;;;;3.08;1.45;;;4.90;99.90;;;;;;5084229;28;20107;-64
2022/04/11 01:39:56;;;;;;;3.00;1.15;;;4.90;99.90;;;;;;5071813;28;20455;-64
2022/04/11 01:42:21;;;;;;;1.42;1.10;;;4.90;99.90;;;;;;5073709;28;20487;-64
2022/04/11 01:44:47;;;;;;;4.47;1.75;;;4.80;99.90;;;;;;5084490;28;20062;-64
2022/04/11 01:47:12;;;;;;;1.20;0.85;;;4.80;99.90;;;;;;5089602;28;20091;-64
2022/04/11 01:49:38;;;;;;;1.80;1.00;;;4.90;99.90;;;;;;5071317;28;20027;-64
2022/04/11 01:52:04;;;;;;;0.95;0.80;;;5.00;99.90;;;;;;5080122;28;20395;-64
2022/04/11 01:54:30;;;;;;;2.97;1.42;;;5.00;99.90;;;;;;5083140;28;20028;-64
2022/04/11 01:56:56;;;;;;;3.13;1.38;;;5.00;99.90;;;;;;5085143;28;20486;-64
2022/04/11 01:59:22;;;;;;;3.65;1.42;;;4.90;99.90;;;;;;5081561;28;20103;-64
2022/04/11 02:01:47;;;;;;;2.85;1.50;;;5.00;99.90;;;;;;5082198;28;20082;-64
2022/04/11 02:04:13;;;;;;;2.65;1.45;;;4.90;99.90;;;;;;5072712;28;20020;-65
2022/04/11 02:06:39;;;;;;;2.13;1.20;;;4.90;99.90;;;;;;5086283;28;20028;-65
2022/04/11 02:09:05;;;;;;;0.80;0.70;;;4.90;99.90;;;;;;5069196;28;20016;-64
2022/04/11 02:11:30;;;;;;;4.00;2.05;;;4.90;99.90;;;;;;5077621;28;20024;-64
2022/04/11 02:13:56;;;;;;;2.05;1.10;;;4.90;99.90;;;;;;5066976;28;20027;-64
2022/04/11 02:16:23;;;;;;;4.72;1.92;;;4.90;99.90;;;;;;5078127;28;20020;-64
2022/04/11 02:18:49;;;;;;;1.73;1.00;;;4.90;99.90;;;;;;5078143;28;20468;-64
2022/04/11 02:21:14;;;;;;;1.40;0.90;;;4.90;99.90;;;;;;5081447;28;20082;-64
2022/04/11 02:23:40;;;;;;;2.78;1.35;;;4.80;99.90;;;;;;5082280;28;20028;-64
2022/04/11 02:26:06;;;;;;;2.20;1.73;;;4.90;99.90;;;;;;5067656;28;20047;-64
2022/04/11 02:28:32;;;;;;;7.72;1.17;;;4.90;99.90;;;;;;5078106;28;20513;-66
2022/04/11 02:30:58;;;;;;;3.28;1.30;;;4.90;99.90;;;;;;5082913;28;20033;-64
2022/04/11 02:33:23;;;;;;;1.77;1.15;;;4.80;99.90;;;;;;5067883;28;20031;-64
2022/04/11 02:35:49;;;;;;;2.85;1.35;;;4.80;99.90;;;;;;5084585;28;20057;-64
2022/04/11 02:38:14;;;;;;;3.15;1.67;;;4.70;99.90;;;;;;5064953;28;20024;-64
2022/04/11 02:40:40;;;;;;;3.42;2.13;;;4.60;99.90;;;;;;5075925;28;20109;-64
2022/04/11 02:43:05;;;;;;;3.13;1.45;;;4.50;99.90;;;;;;5080284;28;20016;-64
2022/04/11 02:45:31;;;;;;;1.88;1.05;;;4.50;99.90;;;;;;5081746;28;20035;-64
2022/04/11 02:47:56;;;;;;;1.92;1.10;;;4.50;99.90;;;;;;5063536;28;20052;-64
2022/04/11 02:50:22;;;;;;;1.92;0.90;;;4.50;99.90;;;;;;5085609;28;20031;-65
2022/04/11 02:52:48;;;;;;;2.38;1.40;;;4.40;99.90;;;;;;5081194;28;20036;-65
2022/04/11 02:55:13;;;;;;;11.25;1.40;;;4.40;99.90;;;;;;5080120;28;20020;-65
2022/04/11 02:57:39;;;;;;;8.13;1.98;;;4.30;99.90;;;;;;5078467;28;20028;-65
2022/04/11 03:00:10;;;;;;;2.63;1.35;;;4.30;99.90;;;;;;5085064;28;20078;-65
2022/04/11 03:02:36;;;;;;;2.67;1.13;;;4.20;99.90;;;;;;5081913;28;20088;-65
2022/04/11 03:05:02;;;;;;;1.63;1.10;;;4.10;99.90;;;;;;5078449;28;20036;-65
2022/04/11 03:07:28;;;;;;;6.45;2.20;;;4.10;99.90;;;;;;5085306;28;20020;-65
2022/04/11 03:09:55;;;;;;;3.85;1.88;;;4.20;99.90;;;;;;5082088;28;20081;-64
2022/04/11 03:12:21;;;;;;;3.00;1.63;;;4.20;99.90;;;;;;5080580;28;20036;-64
2022/04/11 03:14:50;;;;;;;3.63;1.45;;;4.30;99.90;;;;;;5082080;28;20025;-64
2022/04/11 03:17:16;;;;;;;3.75;1.35;;;4.30;99.90;;;;;;5076588;28;20384;-66
2022/04/11 03:19:43;;;;;;;4.18;1.88;;;4.40;99.90;;;;;;5077169;28;20446;-65
2022/04/11 03:22:10;;;;;;;2.80;1.30;;;4.40;99.90;;;;;;5077924;28;20017;-64
2022/04/11 03:24:35;;;;;;;1.08;0.95;;;4.40;99.90;;;;;;5056352;28;20039;-66
2022/04/11 03:27:01;;;;;;;1.00;0.80;;;4.50;99.90;;;;;;5083671;28;20404;-66
2022/04/11 03:29:27;;;;;;;0.82;0.80;;;4.60;99.90;;;;;;5062699;28;20035;-66
2022/04/11 03:31:52;;;;;;;2.13;1.38;;;4.60;99.90;;;;;;5077474;28;20360;-66
2022/04/11 03:34:18;;;;;;;1.52;1.02;;;4.60;99.90;;;;;;5076060;28;20926;-66
2022/04/11 03:36:44;;;;;;;2.13;1.10;;;4.60;99.90;;;;;;5079491;28;20024;-66
2022/04/11 03:39:09;;;;;;;2.30;1.33;;;4.60;99.90;;;;;;5078606;28;20028;-67
2022/04/11 03:41:35;;;;;;;4.68;1.58;;;4.70;99.90;;;;;;5073667;28;20042;-67
2022/04/11 03:44:01;;;;;;;1.48;0.90;;;4.70;99.90;;;;;;5080822;28;20508;-65
2022/04/11 03:46:28;;;;;;;1.48;0.95;;;4.80;99.90;;;;;;5082903;28;20035;-65
2022/04/11 03:48:53;;;;;;;3.08;1.10;;;4.90;99.90;;;;;;5083997;28;20018;-65
2022/04/11 03:51:20;;;;;;;3.40;1.58;;;4.90;99.90;;;;;;5078203;28;20503;-65
2022/04/11 03:53:47;;;;;;;1.88;1.05;;;5.00;99.90;;;;;;5074573;28;21040;-65
2022/04/11 03:56:14;;;;;;;1.40;1.02;;;5.00;99.90;;;;;;5078320;28;20025;-64
2022/04/11 03:58:40;;;;;;;2.00;1.40;;;5.00;99.90;;;;;;5080881;28;20048;-64
2022/04/11 04:01:06;;;;;;;2.67;1.25;;;5.00;99.90;;;;;;5084380;28;20012;-64
2022/04/11 04:03:32;;;;;;;2.85;2.13;;;5.00;99.90;;;;;;5079912;28;20098;-64
2022/04/11 04:05:58;;;;;;;1.75;1.17;;;4.90;99.90;;;;;;5076397;28;20024;-64
2022/04/11 04:08:23;;;;;;;2.58;0.98;;;4.90;99.90;;;;;;5066644;28;20024;-64
2022/04/11 04:10:49;;;;;;;3.47;1.75;;;4.90;99.90;;;;;;5075051;28;20046;-65
2022/04/11 04:13:16;;;;;;;1.70;1.05;;;4.90;99.90;;;;;;5074591;28;20028;-66
2022/04/11 04:15:43;;;;;;;4.63;1.45;;;5.00;99.90;;;;;;5071486;28;20375;-65
2022/04/11 04:18:10;;;;;;;2.38;1.30;;;5.00;99.90;;;;;;5072024;28;20074;-65
2022/04/11 04:20:36;;;;;;;0.85;0.80;;;5.00;99.90;;;;;;5070909;28;20023;-65
2022/04/11 04:23:01;;;;;;;2.38;1.23;;;5.00;99.90;;;;;;5067070;28;20032;-65
2022/04/11 04:25:28;;;;;;;3.45;1.30;;;4.90;99.90;;;;;;5056904;28;20031;-65
2022/04/11 04:27:54;;;;;;;2.72;1.27;;;4.90;99.90;;;;;;5073940;28;20055;-65
2022/04/11 04:30:19;;;;;;;2.33;1.15;;;4.90;99.90;;;;;;5081352;28;20025;-65
2022/04/11 04:32:46;;;;;;;1.45;0.93;;;4.90;99.90;;;;;;5060029;28;20032;-65
2022/04/11 04:35:12;;;;;;;3.13;1.25;;;4.90;99.90;;;;;;5076147;28;20019;-65
2022/04/11 04:37:37;;;;;;;3.30;1.73;;;4.80;99.90;;;;;;5071710;28;20578;-65
2022/04/11 04:40:04;;;;;;;2.22;1.17;;;4.70;99.90;;;;;;5076138;28;20023;-65
2022/04/11 04:42:30;;;;;;;1.73;1.02;;;4.70;99.90;;;;;;5072660;28;20523;-65
2022/04/11 04:44:55;;;;;;;2.92;1.15;;;4.70;99.90;;;;;;5072470;28;20103;-67
2022/04/11 04:47:21;;;;;;;1.90;1.00;;;4.70;99.90;;;;;;5079265;28;20020;-67
2022/04/11 04:49:47;;;;;;;0.90;0.80;;;4.70;99.90;;;;;;5079455;28;20028;-64
2022/04/11 04:52:13;;;;;;;1.27;0.90;;;4.70;99.90;;;;;;5085611;28;20032;-65
2022/04/11 04:54:39;;;;;;;1.98;1.20;;;4.60;99.90;;;;;;5075156;28;20043;-65
2022/04/11 04:57:05;;;;;;;2.58;1.23;;;4.50;99.90;;;;;;5076380;28;20020;-65
2022/04/11 04:59:32;;;;;;;2.60;1.33;;;4.50;99.90;;;;;;5064678;28;20151;-65
2022/04/11 05:01:57;;;;;;;4.43;1.88;;;4.50;99.90;;;;;;5067869;28;20480;-65
2022/04/11 05:04:23;;;;;;;1.25;0.80;;;4.50;99.90;;;;;;5087276;28;20020;-65
2022/04/11 05:06:48;;;;;;;3.85;1.70;;;4.40;99.90;;;;;;5084064;28;20016;-65
2022/04/11 05:09:14;;;;;;;1.50;1.10;;;4.40;99.90;;;;;;5081782;28;20499;-64
2022/04/11 05:11:40;;;;;;;1.80;1.02;;;4.40;99.90;;;;;;5087676;28;20480;-65
2022/04/11 05:14:05;;;;;;;2.92;1.42;;;4.40;99.90;;;;;;5085739;28;20027;-66
2022/04/11 05:16:31;;;;;;;2.53;1.40;;;4.40;99.90;;;;;;5085416;28;20048;-65
2022/04/11 05:18:57;;;;;;;3.60;1.50;;;4.30;99.90;;;;;;5070830;28;20515;-65
2022/04/11 05:21:22;;;;;;;2.83;1.23;;;4.20;99.90;;;;;;5082730;28;20016;-66
2022/04/11 05:23:48;;;;;;;8.18;1.73;;;4.20;99.90;;;;;;5080174;28;20057;-65
2022/04/11 05:26:14;;;;;;;2.40;1.23;;;4.30;99.90;;;;;;5082408;28;20036;-65
2022/04/11 05:28:39;;;;;;;2.28;1.27;;;4.20;99.90;;;;;;5085801;28;20032;-65
2022/04/11 05:31:05;;;;;;;2.30;1.13;;;4.10;99.90;;;;;;5088497;28;20107;-65
2022/04/11 05:33:30;;;;;;;4.32;1.83;;;4.10;99.90;;;;;;5071560;28;20028;-65
2022/04/11 05:35:56;;;;;;;5.20;1.95;;;4.10;99.90;;;;;;5083406;28;20025;-65
2022/04/11 05:38:22;;;;;;;5.50;1.27;;;4.10;99.90;;;;;;5066097;28;20052;-65
2022/04/11 05:40:48;;;;;;;2.75;1.42;;;4.10;99.90;;;;;;5067473;28;20032;-65
2022/04/11 05:43:14;;;;;;;4.55;1.98;;;4.10;99.90;;;;;;5087370;28;20032;-65
2022/04/11 05:45:41;;;;;;;2.95;1.45;;;4.30;99.90;;;;;;5086594;28;20037;-65
2022/04/11 05:48:07;;;;;;;1.85;1.08;;;4.30;99.90;;;;;;5086581;28;20969;-65
2022/04/11 05:50:33;;;;;;;3.53;1.50;;;4.30;99.90;;;;;;5090013;28;20062;-65
2022/04/11 05:53:00;;;;;;;6.60;1.65;;;4.30;99.90;;;;;;5088737;28;20028;-65
2022/04/11 05:55:25;;;;;;;4.30;1.75;;;4.40;99.90;;;;;;5082411;28;20104;-65
2022/04/11 05:57:51;;;;;;;2.95;1.33;;;4.50;99.90;;;;;;5083642;28;20024;-65
2022/04/11 06:00:17;;;;;;;4.53;1.67;;;4.50;99.90;;;;;;5086460;28;20095;-65
2022/04/11 06:02:43;;;;;;;4.63;1.80;;;4.60;99.90;;;;;;5073763;28;20516;-65
2022/04/11 06:05:12;;;;;;;3.78;1.50;;;4.60;99.90;;;;;;5088090;28;20028;-64
2022/04/11 06:07:39;;;;;;;8.52;2.13;;;4.60;99.90;;;;;;5086504;28;20021;-65
2022/04/11 06:10:05;;;;;;;3.35;1.67;;;4.80;99.90;;;;;;5088437;28;20020;-65
2022/04/11 06:12:31;;;;;;;4.88;1.80;;;4.90;99.90;;;;;;5081381;28;20046;-65
2022/04/11 06:14:58;;;;;;;5.50;1.80;;;5.00;99.90;;;;;;5077765;28;20031;-65
2022/04/11 06:17:24;;;;;;;2.92;1.42;;;5.20;99.90;;;;;;5076648;28;20013;-65
2022/04/11 06:19:54;;;;;;;4.80;1.75;;;5.40;99.90;;;;;;5082480;28;20073;-65
2022/04/11 06:22:21;;;;;;;2.20;1.20;;;5.50;99.90;;;;;;5065659;28;20032;-65
2022/04/11 06:24:48;;;;;;;6.40;1.48;;;5.60;99.90;;;;;;5085639;28;20818;-64
2022/04/11 06:27:14;;;;;;;3.50;1.65;;;5.70;99.90;;;;;;5080187;28;20055;-65
2022/04/11 06:29:39;;;;;;;5.22;1.67;;;5.80;99.90;;;;;;5079189;28;20032;-63
2022/04/11 06:32:06;;;;;;;14.73;1.65;;;6.00;99.90;;;;;;5064969;28;20024;-63
2022/04/11 06:34:32;;;;;;;1.88;1.10;;;6.10;99.90;;;;;;5082127;28;20035;-63
2022/04/11 06:36:57;;;;;;;5.53;1.58;;;6.20;99.90;;;;;;5078118;28;20020;-63
2022/04/11 06:39:23;;;;;;;2.17;1.13;;;6.40;99.90;;;;;;5077843;28;20017;-64
2022/04/11 06:41:49;;;;;;;5.82;1.95;;;6.50;99.90;;;;;;5084280;28;20404;-65
2022/04/11 06:44:15;;;;;;;4.35;1.90;;;6.50;99.90;;;;;;5084770;28;20028;-64
2022/04/11 06:46:41;;;;;;;6.03;2.10;;;6.50;99.90;;;;;;5083476;28;20031;-65
2022/04/11 06:49:06;;;;;;;3.00;1.30;;;6.50;99.90;;;;;;5082090;28;20040;-65
2022/04/11 06:51:32;;;;;;;2.67;1.42;;;6.50;99.90;;;;;;5092282;28;20399;-65
2022/04/11 06:53:58;;;;;;;2.03;1.25;;;6.50;99.90;;;;;;5077139;28;20461;-65
2022/04/11 06:56:23;;;;;;;3.45;1.30;;;6.60;99.90;;;;;;5077890;28;20490;-65
2022/04/11 06:58:49;;;;;;;2.17;1.23;;;6.70;99.90;;;;;;5083544;28;20036;-65
2022/04/11 07:01:15;;;;;;;6.38;2.30;;;6.70;99.90;;;;;;5065843;28;20020;-65
2022/04/11 07:03:40;;;;;;;4.22;1.63;;;6.80;99.90;;;;;;5080941;28;20174;-65
2022/04/11 07:06:06;;;;;;;9.35;2.45;;;6.90;99.90;;;;;;5081069;28;20046;-65
2022/04/11 07:08:31;;;;;;;3.22;1.75;;;7.10;99.90;;;;;;5085149;28;20089;-65
2022/04/11 07:10:59;;;;;;;4.13;1.60;;;7.10;99.90;;;;;;5067305;28;20028;-65
2022/04/11 07:13:26;;;;;;;1.67;1.00;;;7.20;99.90;;;;;;5084717;28;20475;-65
2022/04/11 07:15:51;;;;;;;4.47;1.90;;;7.40;99.90;;;;;;5081033;28;20097;-64
2022/04/11 07:18:19;;;;;;;3.55;1.52;;;7.60;99.90;;;;;;5076829;28;20663;-65
2022/04/11 07:20:45;;;;;;;3.33;1.35;;;7.70;99.90;;;;;;5080821;28;20017;-65
2022/04/11 07:23:11;;;;;;;6.97;2.65;;;7.80;99.90;;;;;;5079823;28;20031;-64
2022/04/11 07:25:37;;;;;;;2.72;1.23;;;7.90;99.90;;;;;;5075747;28;20036;-65
2022/04/11 07:28:03;;;;;;;4.00;1.60;;;8.10;99.90;;;;;;5085315;28;20376;-64
2022/04/11 07:30:29;;;;;;;3.92;1.58;;;8.10;99.90;;;;;;5076574;28;20017;-64
2022/04/11 07:32:54;;;;;;;9.18;2.10;;;8.20;99.90;;;;;;5081594;28;20043;-63
2022/04/11 07:35:20;;;;;;;4.55;1.50;;;8.30;99.90;;;;;;5082411;28;20103;-64
2022/04/11 07:37:45;;;;;;;5.13;1.90;;;8.50;99.90;;;;;;5068183;28;20097;-64
2022/04/11 07:40:12;;;;;;;4.82;1.73;;;8.60;99.90;;;;;;5082569;28;20074;-64
2022/04/11 07:42:37;;;;;;;4.53;1.98;;;8.70;99.90;;;;;;5082084;28;20032;-63
2022/04/11 07:45:04;;;;;;;7.70;2.03;;;8.80;99.90;;;;;;5074336;28;20034;-63
2022/04/11 07:47:29;;;;;;;2.17;1.20;;;8.80;99.90;;;;;;5081034;28;20016;-64
2022/04/11 07:49:55;;;;;;;3.38;1.60;;;8.90;99.90;;;;;;5075683;28;20372;-64
2022/04/11 07:52:21;;;;;;;6.75;1.83;;;8.90;99.90;;;;;;5084157;28;20028;-64
2022/04/11 07:54:47;;;;;;;6.43;2.10;;;9.10;99.90;;;;;;5079650;28;20360;-64
2022/04/11 07:57:13;;;;;;;4.25;1.60;;;9.20;99.90;;;;;;5080714;28;20094;-65
2022/04/11 07:59:40;;;;;;;1.40;0.90;;;9.40;99.90;;;;;;5082425;28;20055;-65
2022/04/11 08:02:06;;;;;;;5.10;1.63;;;9.40;99.90;;;;;;5058431;28;20025;-65
2022/04/11 08:04:32;;;;;;;5.38;2.10;;;9.40;99.90;;;;;;5058672;28;20424;-65
2022/04/11 08:06:59;;;;;;;13.23;1.80;;;9.70;99.90;;;;;;5072971;28;20046;-65
2022/04/11 08:09:25;;;;;;;2.85;1.35;;;9.70;99.90;;;;;;5066613;28;20488;-65
2022/04/11 08:11:51;;;;;;;5.65;1.40;;;9.70;99.90;;;;;;5069385;28;20048;-64
2022/04/11 08:14:16;;;;;;;2.38;1.25;;;9.80;99.90;;;;;;5065210;28;20028;-64
2022/04/11 08:16:42;;;;;;;2.17;1.20;;;9.90;99.90;;;;;;5061924;28;20024;-65
2022/04/11 08:19:08;;;;;;;7.00;1.90;;;10.10;99.90;;;;;;5077324;28;20061;-65
2022/04/11 08:21:34;;;;;;;4.00;1.55;;;10.40;99.90;;;;;;5063821;28;20028;-65
2022/04/11 08:23:59;;;;;;;6.90;1.58;;;10.60;99.60;;;;;;5073481;28;20376;-65
2022/04/11 08:26:25;;;;;;;3.67;1.17;;;11.10;99.20;;;;;;5074472;28;20459;-65
2022/04/11 08:28:50;;;;;;;7.40;1.73;;;11.50;98.50;;;;;;5059798;28;20032;-66
2022/04/11 08:31:16;;;;;;;4.30;1.33;;;11.80;98.20;;;;;;5073546;28;20451;-62
2022/04/11 08:33:42;;;;;;;4.85;1.70;;;12.00;98.00;;;;;;5082041;28;20032;-62
2022/04/11 08:36:07;;;;;;;7.60;1.50;;;12.40;97.00;;;;;;5079891;28;20028;-62
2022/04/11 08:38:33;;;;;;;4.72;1.60;;;12.60;97.20;;;;;;5075940;28;20033;-63
2022/04/11 08:41:02;;;;;;;2.42;1.17;;;13.20;96.10;;;;;;5080509;28;20024;-63
2022/04/11 08:43:30;;;;;;;5.45;1.80;;;13.40;95.70;;;;;;5074213;28;20020;-63
2022/04/11 08:45:58;;;;;;;4.78;1.70;;;13.50;94.90;;;;;;5084786;28;20054;-64
2022/04/11 08:48:24;;;;;;;4.80;1.52;;;14.20;94.40;;;;;;5083974;28;20111;-64
2022/04/11 08:50:50;;;;;;;5.75;1.67;;;14.90;92.70;;;;;;5086126;28;20104;-64
2022/04/11 08:53:21;;;;;;;4.45;1.50;;;14.70;92.50;;;;;;5085851;28;20082;-64
2022/04/11 08:55:51;;;;;;;7.60;1.30;;;15.20;92.00;;;;;;5080885;28;20031;-64
2022/04/11 08:58:16;;;;;;;4.43;1.58;;;14.90;91.40;;;;;;5075127;28;20143;-64
2022/04/11 09:00:42;;;;;;;6.47;1.75;;;14.80;92.70;;;;;;5079283;28;20103;-64
2022/04/11 09:03:08;;;;;;;5.68;1.90;;;15.50;90.80;;;;;;5074297;28;20032;-64
2022/04/11 09:05:34;;;;;;;5.38;1.60;;;15.40;91.40;;;;;;5075500;28;20029;-64
2022/04/11 09:08:00;;;;;;;4.32;1.58;;;15.80;89.70;;;;;;5077393;28;20038;-64
2022/04/11 09:10:27;;;;;;;5.45;1.60;;;15.60;90.20;;;;;;5075252;28;20024;-64
2022/04/11 09:12:58;;;;;;;5.47;1.50;;;15.10;88.60;;;;;;5080617;28;20112;-64
2022/04/11 09:15:25;;;;;;;10.57;1.77;;;15.40;88.30;;;;;;5060524;28;20020;-62
2022/04/11 09:17:53;;;;;;;5.40;1.30;;;15.20;88.20;;;;;;5083482;28;20043;-63
2022/04/11 09:20:21;;;;;;;2.55;1.02;;;15.80;88.80;;;;;;5081366;28;20013;-63
2022/04/11 09:22:48;;;;;;;3.85;1.60;;;16.50;87.60;;;;;;5078526;28;20555;-63
2022/04/11 09:25:19;;;;;;;5.80;1.45;;;16.50;85.10;;;;;;5078307;28;20027;-62
2022/04/11 09:27:45;;;;;;;6.65;1.30;;;16.70;83.70;;;;;;5079157;28;20496;-62
2022/04/11 09:30:20;;;;;;;1.85;1.05;;;16.90;86.10;;;;;;5077015;28;20039;-63
2022/04/11 09:32:53;;;;;;;8.15;1.35;;;16.50;83.10;;;;;;5075867;28;20064;-62
2022/04/11 09:35:33;;;;;;;5.18;1.50;;;17.20;82.10;;;;;;5076551;28;20066;-62
2022/04/11 09:38:12;;;;;;;4.07;1.40;;;17.60;79.10;;;;;;5059185;28;20460;-62
2022/04/11 09:40:49;;;;;;;5.00;1.50;;;17.30;77.30;;;;;;5072615;28;20547;-62
2022/04/11 09:43:17;;;;;;;6.63;1.73;;;17.10;76.80;;;;;;5075066;28;20036;-62
2022/04/11 09:45:45;;;;;;;5.38;2.08;;;16.50;78.90;;;;;;5076326;28;20135;-62
2022/04/11 09:48:17;;;;;;;4.40;1.30;;;16.50;75.90;;;;;;5075144;28;20032;-62
2022/04/11 09:50:43;;;;;;;7.60;1.90;;;16.40;76.30;;;;;;5072506;28;20032;-62
2022/04/11 09:53:10;;;;;;;3.72;1.35;;;17.00;74.00;;;;;;5070468;28;20540;-64
2022/04/11 09:55:37;;;;;;;4.57;1.67;;;16.80;73.30;;;;;;5077395;28;20074;-64
2022/04/11 09:58:04;;;;;;;4.15;1.40;;;16.00;75.40;;;;;;5078417;28;20020;-64
2022/04/11 10:00:30;;;;;;;4.45;1.50;;;16.50;77.00;;;;;;5083808;28;20070;-64
2022/04/11 10:02:59;;;;;;;6.38;1.67;;;17.30;77.30;;;;;;5076439;28;20040;-64
2022/04/11 10:05:25;;;;;;;4.78;1.58;;;16.90;74.40;;;;;;5079097;28;20433;-64
2022/04/11 10:07:54;;;;;;;3.25;1.20;;;17.10;75.90;;;;;;5086239;28;20029;-64
2022/04/11 10:10:23;;;;;;;6.97;1.50;;;17.80;75.70;;;;;;5080686;28;20540;-64
2022/04/11 10:12:52;;;;;;;5.77;1.70;;;18.20;73.20;;;;;;5079834;28;20051;-64
2022/04/11 10:15:18;;;;;;;4.18;1.45;;;18.30;73.40;;;;;;5082292;28;20653;-65
2022/04/11 10:17:45;;;;;;;3.80;1.45;;;18.10;71.50;;;;;;5074946;28;20073;-65
2022/04/11 10:20:11;;;;;;;10.23;1.63;;;17.30;72.90;;;;;;5079489;28;20068;-62
2022/04/11 10:22:45;;;;;;;4.68;1.52;;;17.80;71.00;;;;;;5083561;28;20094;-64
2022/04/11 10:25:15;;;;;;;4.85;1.48;;;17.80;70.30;;;;;;5077909;28;20020;-64
2022/04/11 10:27:41;;;;;;;5.40;1.40;;;18.10;71.80;;;;;;5082777;28;20057;-65
2022/04/11 10:30:30;;;;;;;9.88;1.63;;;18.50;70.10;;;;;;5086040;28;20446;-65
2022/04/11 10:32:56;;;;;;;5.43;1.70;;;19.00;69.70;;;;;;5071450;28;20044;-64
2022/04/11 10:35:33;;;;;;;6.00;1.50;;;18.70;70.30;;;;;;5086496;28;20040;-64
2022/04/11 10:37:59;;;;;;;4.55;1.15;;;18.80;71.20;;;;;;5081674;28;20047;-65
2022/04/11 10:40:24;;;;;;;4.85;1.65;;;18.40;68.00;;;;;;5084976;28;20052;-64
2022/04/11 10:43:08;;;;;;;6.07;1.50;;;17.90;67.70;;;;;;5080463;28;20043;-64
2022/04/11 10:45:42;;;;;;;7.00;2.17;;;19.20;70.50;;;;;;5084227;28;20020;-65
2022/04/11 10:48:09;;;;;;;3.78;1.58;;;18.50;65.60;;;;;;5082134;28;20058;-62
2022/04/11 10:50:37;;;;;;;3.70;1.38;;;19.00;67.30;;;;;;5081214;28;20103;-62
2022/04/11 10:53:24;;;;;;;7.32;1.63;;;20.10;66.70;;;;;;5079978;28;20523;-62
2022/04/11 10:55:58;;;;;;;6.95;1.65;;;19.30;66.20;;;;;;5080234;28;20047;-62
2022/04/11 10:58:42;;;;;;;4.15;1.23;;;19.90;66.00;;;;;;5082379;28;20505;-62
2022/04/11 11:01:09;;;;;;;6.45;1.65;;;20.10;63.40;;;;;;5078538;28;20028;-65
2022/04/11 11:03:35;;;;;;;3.60;1.33;;;19.50;65.70;;;;;;5081440;28;20094;-66
2022/04/11 11:06:21;;;;;;;5.32;1.67;;;19.70;65.80;;;;;;5083062;28;20059;-66
2022/04/11 11:08:48;;;;;;;5.80;1.52;;;19.50;64.90;;;;;;5088847;28;20032;-66
2022/04/11 11:11:26;;;;;;;4.60;1.48;;;19.80;64.30;;;;;;5079331;28;20126;-64
2022/04/11 11:13:54;;;;;;;5.22;1.40;;;20.50;64.80;;;;;;5082614;28;20033;-63
2022/04/11 11:16:19;;;;;;;9.75;2.33;;;20.00;63.80;;;;;;5079872;28;20104;-63
2022/04/11 11:18:51;;;;;;;3.17;1.17;;;21.00;63.40;;;;;;5082209;28;20438;-64
2022/04/11 11:21:28;;;;;;;3.55;1.25;;;21.00;63.00;;;;;;5084756;28;20028;-64
2022/04/11 11:26:40;;;;;;;4.60;1.40;;;21.30;62.30;;;;;;5085592;28;20132;-64
2022/04/11 11:29:31;;;;;;;4.75;1.33;;;21.50;62.10;;;;;;5077448;28;20040;-64
2022/04/11 11:31:57;;;;;;;6.10;1.70;;;22.30;64.50;;;;;;5084140;28;20047;-64
2022/04/11 11:34:26;;;;;;;4.65;1.52;;;22.00;59.70;;;;;;5086633;28;20028;-66
2022/04/11 11:36:57;;;;;;;6.78;1.67;;;22.00;59.60;;;;;;5089633;28;20020;-66
2022/04/11 11:39:24;;;;;;;5.45;1.60;;;22.00;57.90;;;;;;5085189;28;20021;-66
2022/04/11 11:41:52;;;;;;;4.32;1.45;;;21.80;58.10;;;;;;5080073;28;20032;-66
2022/04/11 11:44:18;;;;;;;6.70;1.80;;;20.60;60.70;;;;;;5083051;28;20037;-66
2022/04/11 11:46:53;;;;;;;3.28;1.23;;;21.90;59.30;;;;;;5082852;28;20485;-66
2022/04/11 11:49:20;;;;;;;4.85;1.40;;;22.40;58.60;;;;;;5080808;28;20067;-66
2022/04/11 11:51:46;;;;;;;5.72;1.65;;;22.80;59.30;;;;;;5088728;28;20509;-66
2022/04/11 11:54:13;;;;;;;3.97;1.25;;;23.10;57.50;;;;;;5078733;28;20655;-66
2022/04/11 11:56:43;;;;;;;4.60;1.40;;;22.80;56.20;;;;;;5059261;28;20024;-64
2022/04/11 11:59:08;;;;;;;3.65;1.27;;;22.50;55.90;;;;;;5083846;28;20020;-64
2022/04/11 12:01:34;;;;;;;4.60;1.42;;;21.60;57.70;;;;;;5085826;28;20043;-64
2022/04/11 12:06:44;;;;;;;8.18;1.88;;;22.20;56.40;;;;;;5084534;28;20093;-64
2022/04/11 12:09:09;;;;;;;4.53;1.52;;;21.40;55.90;;;;;;5074500;28;20037;-64
2022/04/11 12:11:35;;;;;;;3.88;1.33;;;22.40;57.20;;;;;;5080145;28;20036;-64
2022/04/11 12:14:02;;;;;;;6.10;1.83;;;23.00;53.60;;;;;;5080049;28;20035;-64
2022/04/11 12:16:29;;;;;;;3.35;1.45;;;23.40;54.40;;;;;;5078726;28;20012;-64
2022/04/11 12:19:00;;;;;;;5.07;1.58;;;22.70;54.60;;;;;;5085613;28;20042;-64
2022/04/11 12:21:34;;;;;;;3.53;1.40;;;22.90;54.80;;;;;;5081710;28;20027;-64
2022/04/11 12:24:00;;;;;;;5.57;1.70;;;22.70;55.90;;;;;;5082106;28;20453;-64
2022/04/11 12:26:28;;;;;;;4.70;1.67;;;23.00;54.70;;;;;;5078205;28;20041;-64
2022/04/11 12:28:54;;;;;;;6.20;1.67;;;22.50;55.30;;;;;;5077757;28;20025;-64
2022/04/11 12:31:21;;;;;;;4.80;1.75;;;22.10;57.00;;;;;;5080459;28;20056;-64
2022/04/11 12:33:52;;;;;;;3.72;1.40;;;22.50;53.90;;;;;;5082685;28;20115;-65
2022/04/11 12:36:19;;;;;;;4.97;1.80;;;21.90;56.90;;;;;;5065761;28;20428;-64
2022/04/11 12:38:47;;;;;;;5.63;1.33;;;22.60;55.80;;;;;;5082674;28;20024;-64
2022/04/11 12:41:29;;;;;;;4.28;1.60;;;23.70;56.50;;;;;;5087065;28;20032;-64
2022/04/11 12:44:02;;;;;;;5.30;1.73;;;24.00;54.90;;;;;;5081836;28;20025;-64
2022/04/11 12:46:27;;;;;;;5.07;1.65;;;22.50;55.20;;;;;;5077593;28;20019;-64
2022/04/11 12:48:56;;;;;;;4.97;1.40;;;22.10;55.30;;;;;;5079140;28;20411;-64
2022/04/11 12:51:23;;;;;;;5.70;1.88;;;21.90;55.90;;;;;;5083070;28;20031;-64
2022/04/11 12:53:49;;;;;;;4.55;1.65;;;22.60;54.40;;;;;;5069186;28;20036;-64
2022/04/11 12:56:15;;;;;;;4.78;1.60;;;23.10;57.50;;;;;;5078116;28;20107;-64
2022/04/11 12:58:40;;;;;;;7.93;1.40;;;23.70;54.50;;;;;;5077964;28;20064;-64